createdAt,value
2023-01-21T00:01:13.863Z,100.00
2023-01-21T00:03:41.234Z,100.00
2023-01-21T00:06:08.694Z,100.00
2023-01-21T00:08:35.903Z,100.00
2023-01-21T00:11:11.535Z,100.00
2023-01-21T00:13:38.593Z,100.00
2023-01-21T00:16:06.032Z,100.00
2023-01-21T00:18:33.859Z,100.00
2023-01-21T00:21:01.111Z,100.00
2023-01-21T00:23:28.090Z,100.00
2023-01-21T00:26:02.428Z,100.00
2023-01-21T00:28:30.829Z,100.00
2023-01-21T00:31:03.033Z,100.00
2023-01-21T00:33:31.073Z,100.00
2023-01-21T00:36:03.244Z,100.00
2023-01-21T00:38:30.712Z,100.00
2023-01-21T00:41:08.550Z,100.00
2023-01-21T00:43:35.786Z,100.00
2023-01-21T00:46:02.751Z,100.00
2023-01-21T00:48:29.784Z,100.00
2023-01-21T00:51:00.686Z,100.00
2023-01-21T00:53:29.734Z,100.00
2023-01-21T00:56:07.965Z,100.00
2023-01-21T00:58:35.953Z,100.00
2023-01-21T01:01:09.051Z,100.00
2023-01-21T01:03:37.102Z,100.00
2023-01-21T01:06:12.598Z,100.00
2023-01-21T01:08:39.734Z,100.00
2023-01-21T01:11:07.032Z,100.00
2023-01-21T01:13:35.568Z,100.00
2023-01-21T01:16:03.553Z,100.00
2023-01-21T01:18:33.741Z,100.00
2023-01-21T01:21:01.097Z,100.00
2023-01-21T01:23:28.641Z,100.00
2023-01-21T01:25:57.062Z,100.00
2023-01-21T01:28:23.964Z,100.00
2023-01-21T01:30:51.190Z,100.00
2023-01-21T01:33:19.361Z,100.00
2023-01-21T01:35:47.440Z,100.00
2023-01-21T01:38:16.117Z,100.00
2023-01-21T01:40:43.202Z,100.00
2023-01-21T01:43:18.155Z,100.00
2023-01-21T01:45:47.443Z,100.00
2023-01-21T01:48:22.564Z,100.00
2023-01-21T01:50:49.912Z,100.00
2023-01-21T01:53:18.813Z,100.00
2023-01-21T01:55:47.277Z,100.00
2023-01-21T01:58:16.543Z,100.00
2023-01-21T02:00:43.799Z,100.00
2023-01-21T02:03:30.042Z,100.00
2023-01-21T02:05:57.275Z,100.00
2023-01-21T02:08:24.898Z,100.00
2023-01-21T02:10:54.053Z,100.00
2023-01-21T02:13:20.917Z,100.00
2023-01-21T02:16:12.359Z,100.00
2023-01-21T02:19:08.310Z,100.00
2023-01-21T02:21:38.183Z,100.00
2023-01-21T02:24:20.164Z,100.00
2023-01-21T02:27:30.424Z,100.00
2023-01-21T02:30:17.237Z,100.00
2023-01-21T02:33:13.688Z,100.00
2023-01-21T02:35:58.027Z,100.00
2023-01-21T02:38:39.392Z,100.00
2023-01-21T02:41:46.171Z,100.00
2023-01-21T02:44:28.268Z,100.00
2023-01-21T02:47:19.661Z,100.00
2023-01-21T02:49:49.378Z,100.00
2023-01-21T02:52:21.545Z,100.00
2023-01-21T02:54:55.557Z,100.00
2023-01-21T02:57:39.991Z,100.00
2023-01-21T03:00:13.364Z,100.00
2023-01-21T03:03:17.829Z,100.00
2023-01-21T03:06:07.775Z,100.00
2023-01-21T03:08:42.301Z,100.00
2023-01-21T03:11:15.958Z,100.00
2023-01-21T03:14:19.403Z,100.00
2023-01-21T03:16:58.967Z,100.00
2023-01-21T03:19:50.607Z,100.00
2023-01-21T03:22:22.208Z,100.00
2023-01-21T03:24:51.962Z,100.00
2023-01-21T03:27:24.792Z,100.00
2023-01-21T03:29:58.235Z,100.00
2023-01-21T03:32:27.606Z,100.00
2023-01-21T03:34:56.190Z,100.00
2023-01-21T03:37:49.272Z,100.00
2023-01-21T03:40:20.373Z,100.00
2023-01-21T03:42:52.803Z,100.00
2023-01-21T03:45:36.144Z,100.00
2023-01-21T03:48:16.650Z,100.00
2023-01-21T03:50:52.125Z,100.00
2023-01-21T03:53:19.665Z,100.00
2023-01-21T03:55:49.600Z,100.00
2023-01-21T03:58:16.660Z,100.00
2023-01-21T04:00:43.914Z,100.00
2023-01-21T04:03:10.914Z,100.00
2023-01-21T04:05:38.060Z,100.00
2023-01-21T04:08:04.989Z,100.00
2023-01-21T04:10:32.107Z,100.00
2023-01-21T04:12:59.154Z,100.00
2023-01-21T04:15:26.242Z,100.00
2023-01-21T04:17:53.266Z,100.00
2023-01-21T04:20:20.241Z,100.00
2023-01-21T04:22:47.154Z,100.00
2023-01-21T04:25:14.087Z,100.00
2023-01-21T04:27:41.276Z,100.00
2023-01-21T04:30:08.806Z,100.00
2023-01-21T04:32:37.355Z,100.00
2023-01-21T04:35:04.606Z,100.00
2023-01-21T04:37:31.569Z,100.00
2023-01-21T04:39:58.702Z,100.00
2023-01-21T04:42:25.830Z,100.00
2023-01-21T04:44:52.772Z,100.00
2023-01-21T04:47:19.630Z,100.00
2023-01-21T04:49:48.924Z,100.00
2023-01-21T04:52:15.983Z,100.00
2023-01-21T04:54:43.253Z,100.00
2023-01-21T04:57:11.085Z,100.00
2023-01-21T04:59:38.077Z,100.00
2023-01-21T05:02:05.479Z,100.00
2023-01-21T05:04:33.159Z,100.00
2023-01-21T05:07:00.227Z,100.00
2023-01-21T05:09:27.389Z,100.00
2023-01-21T05:11:54.560Z,100.00
2023-01-21T05:14:21.834Z,100.00
2023-01-21T05:16:48.916Z,100.00
2023-01-21T05:19:16.164Z,100.00
2023-01-21T05:21:43.291Z,100.00
2023-01-21T05:24:10.319Z,100.00
2023-01-21T05:26:37.804Z,100.00
2023-01-21T05:29:04.735Z,100.00
2023-01-21T05:31:32.033Z,100.00
2023-01-21T05:33:59.376Z,100.00
2023-01-21T05:36:26.878Z,100.00
2023-01-21T05:38:54.508Z,100.00
2023-01-21T05:41:22.602Z,100.00
2023-01-21T05:43:50.216Z,100.00
2023-01-21T05:46:18.146Z,100.00
2023-01-21T05:48:46.223Z,100.00
2023-01-21T05:51:14.321Z,100.00
2023-01-21T05:53:42.078Z,100.00
2023-01-21T05:56:09.222Z,100.00
2023-01-21T05:58:37.985Z,100.00
2023-01-21T06:01:06.693Z,100.00
2023-01-21T06:03:34.040Z,100.00
2023-01-21T06:06:02.328Z,100.00
2023-01-21T06:08:30.975Z,100.00
2023-01-21T06:11:01.371Z,100.00
2023-01-21T06:13:29.968Z,100.00
2023-01-21T06:16:08.156Z,100.00
2023-01-21T06:18:36.276Z,100.00
2023-01-21T06:21:03.402Z,100.00
2023-01-21T06:23:30.842Z,100.00
2023-01-21T06:26:02.456Z,100.00
2023-01-21T06:28:31.009Z,100.00
2023-01-21T06:30:58.506Z,100.00
2023-01-21T06:33:25.732Z,100.00
2023-01-21T06:35:53.270Z,100.00
2023-01-21T06:38:20.667Z,100.00
2023-01-21T06:40:47.947Z,100.00
2023-01-21T06:43:16.411Z,100.00
2023-01-21T06:45:43.250Z,100.00
2023-01-21T06:48:10.460Z,100.00
2023-01-21T06:50:38.231Z,100.00
2023-01-21T06:53:05.361Z,100.00
2023-01-21T06:55:32.877Z,100.00
2023-01-21T06:57:59.967Z,100.00
2023-01-21T07:00:27.239Z,100.00
2023-01-21T07:02:58.867Z,100.00
2023-01-21T07:05:27.348Z,100.00
2023-01-21T07:07:56.274Z,100.00
2023-01-21T07:10:25.515Z,100.00
2023-01-21T07:12:53.092Z,100.00
2023-01-21T07:15:20.972Z,100.00
2023-01-21T07:17:48.985Z,100.00
2023-01-21T07:20:17.118Z,100.00
2023-01-21T07:22:44.263Z,100.00
2023-01-21T07:25:12.088Z,100.00
2023-01-21T07:27:41.786Z,100.00
2023-01-21T07:30:16.484Z,100.00
2023-01-21T07:32:44.394Z,100.00
2023-01-21T07:35:12.896Z,100.00
2023-01-21T07:37:41.111Z,100.00
2023-01-21T07:40:09.375Z,100.00
2023-01-21T07:42:36.957Z,99.78
2023-01-21T07:45:05.090Z,99.54
2023-01-21T07:47:32.375Z,99.93
2023-01-21T07:50:05.116Z,99.93
2023-01-21T07:52:35.498Z,99.65
2023-01-21T07:55:03.485Z,99.95
2023-01-21T07:57:30.741Z,99.89
2023-01-21T07:59:58.127Z,100.00
2023-01-21T08:02:26.149Z,100.00
2023-01-21T08:04:53.516Z,99.97
2023-01-21T08:07:20.986Z,100.00
2023-01-21T08:09:48.502Z,99.77
2023-01-21T08:12:16.303Z,99.59
2023-01-21T08:14:46.526Z,99.06
2023-01-21T08:17:19.419Z,99.42
2023-01-21T08:19:47.222Z,99.50
2023-01-21T08:22:17.108Z,100.00
2023-01-21T08:24:45.050Z,100.00
2023-01-21T08:27:13.127Z,100.00
2023-01-21T08:29:41.082Z,100.00
2023-01-21T08:32:09.014Z,100.00
2023-01-21T08:34:36.881Z,100.00
2023-01-21T08:37:04.716Z,99.85
2023-01-21T08:39:34.446Z,99.79
2023-01-21T08:42:02.571Z,99.28
2023-01-21T08:44:30.107Z,99.21
2023-01-21T08:46:57.235Z,99.55
2023-01-21T08:49:24.823Z,99.64
2023-01-21T08:51:52.950Z,99.31
2023-01-21T08:54:20.659Z,99.28
2023-01-21T08:56:48.815Z,99.55
2023-01-21T08:59:17.277Z,99.81
2023-01-21T09:01:44.717Z,99.86
2023-01-21T09:04:12.001Z,100.00
2023-01-21T09:06:39.364Z,100.00
2023-01-21T09:09:07.069Z,100.00
2023-01-21T09:11:35.051Z,100.00
2023-01-21T09:14:04.604Z,100.00
2023-01-21T09:16:32.575Z,100.00
2023-01-21T09:19:00.575Z,100.00
2023-01-21T09:21:29.716Z,100.00
2023-01-21T09:23:57.430Z,100.00
2023-01-21T09:26:25.681Z,100.00
2023-01-21T09:29:01.266Z,99.87
2023-01-21T09:31:30.756Z,99.93
2023-01-21T09:34:01.009Z,99.58
2023-01-21T09:36:34.605Z,98.77
2023-01-21T09:39:02.825Z,98.42
2023-01-21T09:41:34.924Z,98.44
2023-01-21T09:44:27.270Z,97.37
2023-01-21T09:47:12.842Z,97.23
2023-01-21T09:49:44.866Z,95.74
2023-01-21T09:52:19.129Z,93.33
2023-01-21T09:54:46.843Z,92.81
2023-01-21T09:57:44.105Z,92.34
2023-01-21T10:00:35.620Z,92.00
2023-01-21T10:03:09.521Z,91.81
2023-01-21T10:05:45.042Z,91.57
2023-01-21T10:08:18.672Z,92.71
2023-01-21T10:11:13.935Z,92.97
2023-01-21T10:13:58.673Z,93.76
2023-01-21T10:16:46.907Z,94.72
2023-01-21T10:19:21.589Z,94.85
2023-01-21T10:21:57.184Z,94.68
2023-01-21T10:24:32.810Z,95.29
2023-01-21T10:27:01.583Z,95.10
2023-01-21T10:29:29.897Z,95.34
2023-01-21T10:32:02.825Z,95.10
2023-01-21T10:34:33.077Z,95.14
2023-01-21T10:37:26.334Z,95.44
2023-01-21T10:40:17.647Z,95.73
2023-01-21T10:43:09.929Z,95.86
2023-01-21T10:45:37.111Z,96.36
2023-01-21T10:48:10.785Z,97.13
2023-01-21T10:51:10.629Z,98.28
2023-01-21T10:53:42.043Z,98.23
2023-01-21T10:56:37.926Z,99.32
2023-01-21T10:59:14.832Z,99.38
2023-01-21T11:01:47.447Z,99.27
2023-01-21T11:04:16.685Z,99.86
2023-01-21T11:06:58.141Z,100.00
2023-01-21T11:09:29.809Z,100.00
2023-01-21T11:11:57.279Z,100.00
2023-01-21T11:14:28.457Z,100.00
2023-01-21T11:16:57.033Z,100.00
2023-01-21T11:19:24.389Z,100.00
2023-01-21T11:22:23.737Z,100.00
2023-01-21T11:24:52.931Z,97.84
2023-01-21T11:27:34.756Z,96.86
2023-01-21T11:30:03.011Z,95.85
2023-01-21T11:32:32.693Z,96.08
2023-01-21T11:35:16.356Z,95.77
2023-01-21T11:37:45.829Z,96.05
2023-01-21T11:40:26.241Z,95.38
2023-01-21T11:42:56.842Z,95.78
2023-01-21T11:45:29.177Z,95.76
2023-01-21T11:47:58.191Z,95.52
2023-01-21T11:50:35.902Z,96.04
2023-01-21T11:53:13.725Z,96.91
2023-01-21T11:56:00.163Z,97.05
2023-01-21T15:57:31.173Z,100.00
2023-01-21T16:00:21.268Z,100.00
2023-01-21T16:02:48.400Z,100.00
2023-01-21T16:05:28.356Z,100.00
2023-01-21T16:08:18.893Z,100.00
2023-01-21T16:11:01.613Z,100.00
2023-01-21T16:13:28.826Z,100.00
2023-01-21T16:16:24.785Z,100.00
2023-01-21T16:19:24.429Z,100.00
2023-01-21T16:21:57.224Z,100.00
2023-01-21T16:24:28.071Z,100.00
2023-01-21T16:26:56.707Z,100.00
2023-01-21T16:29:24.346Z,100.00
2023-01-21T16:32:01.988Z,100.00
2023-01-21T16:34:32.005Z,100.00
2023-01-21T16:36:59.344Z,100.00
2023-01-21T16:39:26.761Z,100.00
2023-01-21T16:42:06.190Z,100.00
2023-01-21T16:44:35.750Z,100.00
2023-01-21T16:47:03.492Z,100.00
2023-01-21T16:49:30.527Z,100.00
2023-01-21T16:52:00.956Z,100.00
2023-01-21T16:54:32.944Z,100.00
2023-01-21T16:57:32.029Z,100.00
2023-01-21T17:00:02.907Z,100.00
2023-01-21T17:02:33.127Z,100.00
2023-01-21T17:05:05.159Z,100.00
2023-01-21T17:07:44.038Z,100.00
2023-01-21T17:10:22.465Z,100.00
2023-01-21T17:13:06.216Z,100.00
2023-01-21T17:15:38.742Z,100.00
2023-01-21T17:18:26.182Z,100.00
2023-01-21T17:21:21.572Z,100.00
2023-01-21T17:23:55.565Z,100.00
2023-01-21T17:26:29.762Z,100.00
2023-01-21T17:29:03.537Z,100.00
2023-01-21T17:31:36.293Z,100.00
2023-01-21T17:34:15.363Z,100.00
2023-01-21T17:36:45.631Z,100.00
2023-01-21T17:39:13.513Z,100.00
2023-01-21T17:41:44.795Z,100.00
2023-01-21T17:44:19.925Z,100.00
2023-01-21T17:46:54.273Z,100.00
2023-01-21T17:49:26.149Z,100.00
2023-01-21T17:51:54.970Z,100.00
2023-01-21T17:54:27.764Z,100.00
2023-01-21T17:56:59.843Z,100.00
2023-01-21T17:59:31.810Z,100.00
2023-01-21T18:01:59.161Z,100.00
2023-01-21T18:04:26.804Z,100.00
2023-01-21T18:06:54.975Z,100.00
2023-01-21T18:09:23.777Z,100.00
2023-01-21T18:11:52.967Z,100.00
2023-01-21T18:14:22.986Z,100.00
2023-01-21T18:16:50.715Z,100.00
2023-01-21T18:19:30.252Z,100.00
2023-01-21T18:21:57.443Z,100.00
2023-01-21T18:24:25.502Z,100.00
2023-01-21T18:26:52.980Z,100.00
2023-01-21T18:29:21.946Z,100.00
2023-01-21T18:31:51.438Z,100.00
2023-01-21T18:34:19.353Z,100.00
2023-01-21T18:36:46.511Z,100.00
2023-01-21T18:39:16.162Z,100.00
2023-01-21T18:41:43.834Z,100.00
2023-01-21T18:44:10.964Z,100.00
2023-01-21T18:46:43.430Z,100.00
2023-01-21T18:49:18.918Z,100.00
2023-01-21T18:51:46.860Z,100.00
2023-01-21T18:54:15.141Z,100.00
2023-01-21T18:56:43.579Z,100.00
2023-01-21T18:59:17.123Z,100.00
2023-01-21T19:01:44.967Z,100.00
2023-01-21T19:04:18.408Z,100.00
2023-01-21T19:06:55.733Z,100.00
2023-01-21T19:09:25.181Z,100.00
2023-01-21T19:11:52.625Z,100.00
2023-01-21T19:14:19.899Z,100.00
2023-01-21T19:16:47.149Z,100.00
2023-01-21T19:19:16.915Z,100.00
2023-01-21T19:21:43.985Z,100.00
2023-01-21T19:24:12.246Z,100.00
2023-01-21T19:26:39.826Z,100.00
2023-01-21T19:29:13.437Z,100.00
2023-01-21T19:31:40.654Z,100.00
2023-01-21T19:34:09.349Z,100.00
2023-01-21T19:36:36.612Z,100.00
2023-01-21T19:39:03.993Z,100.00
2023-01-21T19:41:31.020Z,100.00
2023-01-21T19:43:58.211Z,100.00
2023-01-21T19:46:29.029Z,100.00
2023-01-21T19:48:57.205Z,100.00
2023-01-21T19:51:24.582Z,100.00
